Terminal Aerodrome Forecast
Issued by NWS

Home | Current Version | Previous Version | Graphics & Text | Print | Product List | Glossary On
Versions: 1 2 3 4 5 6 7 8 9 10 11 12 13 14 15
000
FTUS43 KICT 211858 AAA
TAFSLN
TAF AMD
KSLN 211858Z 2119/2218 31018G26KT P6SM VCSH BKN040
     FM220100 34014KT P6SM SCT100 BKN200
     FM220500 29008KT P6SM SCT200=

USA.gov is the U.S. government's official web portal to all federal, state and local government web resources and services.